Marchen Maersk — OUIY2 — position and weather

sailwx.info

Track history (hours):
 
Tides and Currents Weather Stations Pressure Air Temp Water Temp Dewpoint Dewpoint Depression Visibility Wind Speed Wind Dir Waves Ship Positions

Marchen Maersk

Last reported at 2015-Jun-24 21:00 UTC. Time now 2015-Jul-06 19:56 UTC.
Position N 38°24' W 128°00'.
Warning: this ship's position is 11 days out of date.

Length 367 m; draft 11.1 m.

Type: Ship (hazmat cat A). MMSI: 220594000.

Wind from 350 at 13 knots

Waves 1.5 meters (5 feet), 3 second period

Barometer 1025.0 mb
Air temperature 19.0 ° C
Visibility: greater than 2.2 NM
Dewpoint 15.9 ° C

Date/timePositionNaut miles runAvg speedWind from/ knotsBaromVisibWave heightAir tempDewpointWater temp
2015-Jun-24 21:00N 38°24' W 128°00'9110.5 350 / 131025.0 2.2 1.519.015.9
2015-Jun-24 12:20N 38°11' W 126°06'1512.3
2015-Jun-24 11:05N 38°11' W 125°46'3011.9
2015-Jun-24 08:33N 38°11' W 125°08'1211.6
2015-Jun-24 07:32N 38°11' W 124°53'1111.4
2015-Jun-24 06:33N 38°11' W 124°38'1111.2
2015-Jun-24 05:33N 38°11' W 124°24'1211.6
2015-Jun-24 04:33N 38°11' W 124°10'1111.3
2015-Jun-24 03:33N 38°11' W 123°55'1111.3
2015-Jun-24 02:33N 38°11' W 123°41'1111.4
2015-Jun-24 01:33N 38°11' W 123°26'9 9.5
2015-Jun-24 00:33N 38°06' W 123°16'1010.3
2015-Jun-23 23:33N 37°58' W 123°08'1111.2
2015-Jun-23 22:33N 37°52' W 122°55'1110.7
2015-Jun-23 21:33N 37°46' W 122°44'7 6.9
2015-Jun-23 20:33N 37°47' W 122°36'10 9.9
2015-Jun-23 19:34N 37°49' W 122°24'3 6.7
2015-Jun-23 19:06N 37°49' W 122°20'0 0.0
2015-Jun-22 19:31N 37°49' W 122°19'0 0.0
2015-Jun-22 18:31N 37°49' W 122°19'0 0.0
2015-Jun-22 17:31N 37°49' W 122°19'0 0.0
2015-Jun-22 16:31N 37°49' W 122°19'0 0.0
2015-Jun-22 15:31N 37°49' W 122°19'0 0.0
2015-Jun-22 14:31N 37°49' W 122°19'0 0.0
2015-Jun-22 13:31N 37°49' W 122°19'0 0.0
2015-Jun-22 12:28N 37°49' W 122°19'0 0.0
2015-Jun-22 11:28N 37°49' W 122°19'0 0.0
2015-Jun-22 10:31N 37°49' W 122°19'0 0.0
2015-Jun-22 09:31N 37°49' W 122°19'0 0.0
2015-Jun-22 08:31N 37°49' W 122°19'0 0.0
2015-Jun-22 07:31N 37°49' W 122°19'0 0.0
2015-Jun-22 06:19N 37°49' W 122°19'0 0.0
2015-Jun-22 05:31N 37°49' W 122°19'0 0.0
2015-Jun-22 04:31N 37°49' W 122°19'0 0.0
2015-Jun-22 03:31N 37°49' W 122°19'0 0.0
2015-Jun-22 02:31N 37°49' W 122°19'0 0.0
2015-Jun-22 01:31N 37°49' W 122°19'0 0.0
2015-Jun-22 00:31N 37°49' W 122°19'0 0.0
2015-Jun-21 23:31N 37°49' W 122°19'0 0.0
2015-Jun-21 22:31N 37°49' W 122°19'0 0.0
2015-Jun-21 21:31N 37°49' W 122°19'0 0.0
2015-Jun-21 20:31N 37°49' W 122°19'0 0.0
2015-Jun-21 19:31N 37°49' W 122°19'0 0.0
2015-Jun-21 18:31N 37°49' W 122°19'1 1.4
2015-Jun-21 17:33N 37°48' W 122°21'5 4.8
2015-Jun-21 16:31N 37°43' W 122°20'0 0.1
2015-Jun-21 15:31N 37°43' W 122°21'0 0.0
2015-Jun-21 14:31N 37°43' W 122°21'0 0.0
2015-Jun-21 13:31N 37°43' W 122°21'0 0.0
2015-Jun-21 12:31N 37°43' W 122°21'0 0.2
2015-Jun-21 11:31N 37°43' W 122°20'0 0.1
2015-Jun-21 10:31N 37°43' W 122°20'0 0.1
2015-Jun-21 09:31N 37°43' W 122°20'0 0.1
2015-Jun-21 08:28N 37°43' W 122°20'0 0.0
2015-Jun-21 07:31N 37°43' W 122°20'0 0.1
2015-Jun-21 06:31N 37°43' W 122°20'0 0.0
2015-Jun-21 05:31N 37°43' W 122°20'0 0.2
2015-Jun-21 04:31N 37°43' W 122°20'0 0.0
2015-Jun-21 03:31N 37°43' W 122°20'0 0.0
2015-Jun-21 02:31N 37°43' W 122°20'0 0.0
2015-Jun-21 01:31N 37°43' W 122°20'0 0.2
2015-Jun-21 00:31N 37°43' W 122°20'0 0.1
2015-Jun-20 23:31N 37°43' W 122°20'0 0.1
2015-Jun-20 22:31N 37°43' W 122°20'0 0.0
2015-Jun-20 21:31N 37°43' W 122°20'0 0.0
2015-Jun-20 20:31N 37°43' W 122°20'0 0.0
2015-Jun-20 19:31N 37°43' W 122°20'0 0.0
2015-Jun-20 18:28N 37°43' W 122°20'0 0.1
2015-Jun-20 17:31N 37°43' W 122°20'0 0.2
2015-Jun-20 16:31N 37°43' W 122°20'0 0.1
2015-Jun-20 15:31N 37°43' W 122°21'0 0.0
2015-Jun-20 14:31N 37°43' W 122°21'0 0.0
2015-Jun-20 13:31N 37°43' W 122°21'0 0.0
2015-Jun-20 12:31N 37°43' W 122°21'0 0.0
2015-Jun-20 11:31N 37°43' W 122°21'0 0.2
2015-Jun-20 10:31N 37°43' W 122°20'0 0.2
2015-Jun-20 09:31N 37°43' W 122°20'0 0.0
2015-Jun-20 08:31N 37°43' W 122°20'0 0.0
2015-Jun-20 07:25N 37°43' W 122°20'0 0.0
2015-Jun-20 06:31N 37°43' W 122°20'0 0.1
2015-Jun-20 05:31N 37°43' W 122°20'0 0.1
2015-Jun-20 04:31N 37°43' W 122°20'0 0.2
2015-Jun-20 03:25N 37°43' W 122°20'0 0.0
2015-Jun-20 02:31N 37°43' W 122°20'0 0.1
2015-Jun-20 01:31N 37°43' W 122°20'0 0.1
2015-Jun-20 00:25N 37°43' W 122°20'0 0.1
2015-Jun-19 23:31N 37°43' W 122°20'0 0.1
2015-Jun-19 22:31N 37°43' W 122°20'0 0.0
2015-Jun-19 21:31N 37°43' W 122°20'0 0.0
2015-Jun-19 20:31N 37°43' W 122°20'0 0.0
2015-Jun-19 19:31N 37°43' W 122°20'0 0.0
2015-Jun-19 18:31N 37°43' W 122°20'0 0.4
2015-Jun-19 17:31N 37°43' W 122°21'0 0.0
2015-Jun-19 16:31N 37°43' W 122°21'0 0.0
2015-Jun-19 15:31N 37°43' W 122°21'0 0.0
2015-Jun-19 14:31N 37°43' W 122°21'0 0.0
2015-Jun-19 13:31N 37°43' W 122°21'0 0.0
2015-Jun-19 12:31N 37°43' W 122°21'0 0.0
2015-Jun-19 11:31N 37°43' W 122°21'0 0.1
2015-Jun-19 10:31N 37°43' W 122°21'0 0.2
2015-Jun-19 09:31N 37°43' W 122°20'0 0.1
2015-Jun-19 08:31N 37°43' W 122°20'0 0.1
2015-Jun-19 07:31N 37°43' W 122°20'0 0.0
2015-Jun-19 06:25N 37°43' W 122°20'0 0.0
2015-Jun-19 05:31N 37°43' W 122°20'0 0.1
2015-Jun-19 04:31N 37°43' W 122°20'0 0.1
2015-Jun-19 03:31N 37°43' W 122°20'0 0.1
2015-Jun-19 02:28N 37°43' W 122°21'0 0.0
2015-Jun-19 01:31N 37°43' W 122°21'0 0.0
2015-Jun-19 00:31N 37°43' W 122°20'0 0.1
2015-Jun-18 23:31N 37°43' W 122°20'0 0.1
2015-Jun-18 22:31N 37°43' W 122°20'0 0.1
2015-Jun-18 21:28N 37°43' W 122°20'0 0.0
2015-Jun-18 20:31N 37°43' W 122°20'0 0.0
2015-Jun-18 19:31N 37°43' W 122°20'0 0.0
2015-Jun-18 18:28N 37°43' W 122°20'0 0.0
2015-Jun-18 17:31N 37°43' W 122°20'0 0.1
2015-Jun-18 16:31N 37°43' W 122°20'0 0.3
2015-Jun-18 15:31N 37°43' W 122°21'0 0.1
2015-Jun-18 14:31N 37°43' W 122°21'0 0.0
2015-Jun-18 13:25N 37°43' W 122°21'0 0.0
2015-Jun-18 12:31N 37°43' W 122°21'0 0.0
2015-Jun-18 11:31N 37°43' W 122°21'0 0.0
2015-Jun-18 10:31N 37°43' W 122°21'0 0.2
2015-Jun-18 09:31N 37°43' W 122°20'0 0.2
2015-Jun-18 08:31N 37°43' W 122°20'0 0.1
2015-Jun-18 07:31N 37°43' W 122°20'0 0.0
2015-Jun-18 06:31N 37°43' W 122°20'0 0.0
2015-Jun-18 05:25N 37°43' W 122°20'0 0.1
2015-Jun-18 04:31N 37°43' W 122°20'0 0.1
2015-Jun-18 03:31N 37°43' W 122°20'0 0.2
2015-Jun-18 02:31N 37°43' W 122°20'0 0.2
2015-Jun-18 01:31N 37°43' W 122°21'0 0.0
2015-Jun-18 00:31N 37°43' W 122°21'0 0.1
2015-Jun-17 23:31N 37°43' W 122°20'0 0.1
2015-Jun-17 22:31N 37°43' W 122°20'0 0.2
2015-Jun-17 21:31N 37°43' W 122°20'0 0.0
2015-Jun-17 20:31N 37°43' W 122°20'0 0.1
2015-Jun-17 19:31N 37°43' W 122°20'0 0.0
2015-Jun-17 18:31N 37°43' W 122°20'0 0.0
2015-Jun-17 17:31N 37°43' W 122°20'0 0.0
2015-Jun-17 16:31N 37°43' W 122°21'0 0.2
2015-Jun-17 15:25N 37°43' W 122°20'0 0.1
2015-Jun-17 14:31N 37°43' W 122°21'0 0.0
2015-Jun-17 13:31N 37°43' W 122°21'0 0.0
2015-Jun-17 12:31N 37°43' W 122°21'0 0.0
2015-Jun-17 11:31N 37°43' W 122°21'0 0.0
2015-Jun-17 10:31N 37°43' W 122°21'0 0.0
2015-Jun-17 09:31N 37°43' W 122°21'0 0.2
2015-Jun-17 08:31N 37°43' W 122°20'0 0.2
2015-Jun-17 07:28N 37°43' W 122°20'0 0.1
2015-Jun-17 06:25N 37°43' W 122°20'0 0.1
2015-Jun-17 05:31N 37°43' W 122°20'0 0.0
2015-Jun-17 04:31N 37°43' W 122°20'0 0.1
2015-Jun-17 03:28N 37°43' W 122°20'0 0.1
2015-Jun-17 02:28N 37°43' W 122°20'0 0.2
2015-Jun-17 01:25N 37°43' W 122°20'0 0.1
2015-Jun-17 00:19N 37°43' W 122°21'0 0.1
2015-Jun-16 23:33N 37°43' W 122°20'4 4.4
2015-Jun-16 22:33N 37°47' W 122°23'1111.1
2015-Jun-16 21:33N 37°46' W 122°37'9 9.0
2015-Jun-16 20:33N 37°38' W 122°40'1111.2
2015-Jun-16 19:32N 37°26' W 122°40'1110.7
2015-Jun-16 18:31N 37°15' W 122°39'1010.9
2015-Jun-16 17:33N 37°05' W 122°37'1111.2
2015-Jun-16 16:33N 36°55' W 122°31'1111.3
2015-Jun-16 15:33N 36°44' W 122°26'1211.6
2015-Jun-16 14:33N 36°33' W 122°20'1111.4
2015-Jun-16 13:33N 36°23' W 122°15'1111.1
2015-Jun-16 12:33N 36°13' W 122°09'1111.0
2015-Jun-16 11:33N 36°03' W 122°03'1110.8
2015-Jun-16 10:33N 35°54' W 121°56'1110.7
2015-Jun-16 09:33N 35°44' W 121°50'1110.8
2015-Jun-16 08:33N 35°35' W 121°44'1110.8
2015-Jun-16 07:33N 35°25' W 121°38'1110.8
2015-Jun-16 06:33N 35°16' W 121°31'1110.6
2015-Jun-16 05:33N 35°06' W 121°25'1110.9
2015-Jun-16 04:33N 34°57' W 121°19'1110.8
2015-Jun-16 03:33N 34°47' W 121°13'1110.5
2015-Jun-16 02:33N 34°38' W 121°07'1110.7
2015-Jun-16 01:33N 34°29' W 121°00'1111.4
2015-Jun-16 00:33N 34°25' W 120°47'1211.6
2015-Jun-15 23:33N 34°22' W 120°34'4011.4
2015-Jun-15 20:05N 34°12' W 119°47'711.7
2015-Jun-15 19:27N 34°10' W 119°39'2712.0
2015-Jun-15 17:14N 34°01' W 119°08'1112.3
2015-Jun-15 16:19N 33°55' W 118°56'912.3
2015-Jun-15 15:33N 33°51' W 118°47'1211.9
2015-Jun-15 14:33N 33°45' W 118°34'1111.4
2015-Jun-15 13:33N 33°39' W 118°22'9 9.0
2015-Jun-15 12:32N 33°41' W 118°12'5 4.9
2015-Jun-15 11:33N 33°45' W 118°14'0 0.3
2015-Jun-15 10:33N 33°45' W 118°14'0 0.0
2015-Jun-15 09:33N 33°45' W 118°14'0 0.0
2015-Jun-15 08:32N 33°45' W 118°14'0 0.0
2015-Jun-15 07:33N 33°45' W 118°14'0 0.0
2015-Jun-15 06:32N 33°45' W 118°14'0 0.0
2015-Jun-15 05:32N 33°45' W 118°14'0 0.0
2015-Jun-15 04:33N 33°45' W 118°14'0 0.0
2015-Jun-15 03:32N 33°45' W 118°14'0 0.0
2015-Jun-15 02:32N 33°45' W 118°14'0 0.0
2015-Jun-15 01:32N 33°45' W 118°14'0 0.0
2015-Jun-15 00:32N 33°45' W 118°14'0 0.0
2015-Jun-14 23:32N 33°45' W 118°14'0 0.0
2015-Jun-14 22:32N 33°45' W 118°14'0 0.0
2015-Jun-14 21:32N 33°45' W 118°14'  
Track history (hours):
 
Tides and Currents Weather Stations Pressure Air Temp Water Temp Dewpoint Dewpoint Depression Visibility Wind Speed Wind Dir Waves Ship Positions

Marchen Maersk

Last reported at 2015-Jun-24 21:00 UTC. Time now 2015-Jul-06 19:56 UTC.
Position N 38°24' W 128°00'.
Warning: this ship's position is 11 days out of date.

Length 367 m; draft 11.1 m.

Type: Ship (hazmat cat A). MMSI: 220594000.

Wind from 350 at 13 knots

Waves 1.5 meters (5 feet), 3 second period

Barometer 1025.0 mb
Air temperature 19.0 ° C
Visibility: greater than 2.2 NM
Dewpoint 15.9 ° C

Date/timePositionNaut miles runAvg speedWind from/ knotsBaromVisibWave heightAir tempDewpointWater temp
2015-Jun-24 21:00N 38°24' W 128°00'9110.5 350 / 131025.0 2.2 1.519.015.9
2015-Jun-24 12:20N 38°11' W 126°06'1512.3
2015-Jun-24 11:05N 38°11' W 125°46'3011.9
2015-Jun-24 08:33N 38°11' W 125°08'1211.6
2015-Jun-24 07:32N 38°11' W 124°53'1111.4
2015-Jun-24 06:33N 38°11' W 124°38'1111.2
2015-Jun-24 05:33N 38°11' W 124°24'1211.6
2015-Jun-24 04:33N 38°11' W 124°10'1111.3
2015-Jun-24 03:33N 38°11' W 123°55'1111.3
2015-Jun-24 02:33N 38°11' W 123°41'1111.4
2015-Jun-24 01:33N 38°11' W 123°26'9 9.5
2015-Jun-24 00:33N 38°06' W 123°16'1010.3
2015-Jun-23 23:33N 37°58' W 123°08'1111.2
2015-Jun-23 22:33N 37°52' W 122°55'1110.7
2015-Jun-23 21:33N 37°46' W 122°44'7 6.9
2015-Jun-23 20:33N 37°47' W 122°36'10 9.9
2015-Jun-23 19:34N 37°49' W 122°24'3 6.7
2015-Jun-23 19:06N 37°49' W 122°20'0 0.0
2015-Jun-22 19:31N 37°49' W 122°19'0 0.0
2015-Jun-22 18:31N 37°49' W 122°19'0 0.0
2015-Jun-22 17:31N 37°49' W 122°19'0 0.0
2015-Jun-22 16:31N 37°49' W 122°19'0 0.0
2015-Jun-22 15:31N 37°49' W 122°19'0 0.0
2015-Jun-22 14:31N 37°49' W 122°19'0 0.0
2015-Jun-22 13:31N 37°49' W 122°19'0 0.0
2015-Jun-22 12:28N 37°49' W 122°19'0 0.0
2015-Jun-22 11:28N 37°49' W 122°19'0 0.0
2015-Jun-22 10:31N 37°49' W 122°19'0 0.0
2015-Jun-22 09:31N 37°49' W 122°19'0 0.0
2015-Jun-22 08:31N 37°49' W 122°19'0 0.0
2015-Jun-22 07:31N 37°49' W 122°19'0 0.0
2015-Jun-22 06:19N 37°49' W 122°19'0 0.0
2015-Jun-22 05:31N 37°49' W 122°19'0 0.0
2015-Jun-22 04:31N 37°49' W 122°19'0 0.0
2015-Jun-22 03:31N 37°49' W 122°19'0 0.0
2015-Jun-22 02:31N 37°49' W 122°19'0 0.0
2015-Jun-22 01:31N 37°49' W 122°19'0 0.0
2015-Jun-22 00:31N 37°49' W 122°19'0 0.0
2015-Jun-21 23:31N 37°49' W 122°19'0 0.0
2015-Jun-21 22:31N 37°49' W 122°19'0 0.0
2015-Jun-21 21:31N 37°49' W 122°19'0 0.0
2015-Jun-21 20:31N 37°49' W 122°19'0 0.0
2015-Jun-21 19:31N 37°49' W 122°19'0 0.0
2015-Jun-21 18:31N 37°49' W 122°19'1 1.4
2015-Jun-21 17:33N 37°48' W 122°21'5 4.8
2015-Jun-21 16:31N 37°43' W 122°20'0 0.1
2015-Jun-21 15:31N 37°43' W 122°21'0 0.0
2015-Jun-21 14:31N 37°43' W 122°21'0 0.0
2015-Jun-21 13:31N 37°43' W 122°21'0 0.0
2015-Jun-21 12:31N 37°43' W 122°21'0 0.2
2015-Jun-21 11:31N 37°43' W 122°20'0 0.1
2015-Jun-21 10:31N 37°43' W 122°20'0 0.1
2015-Jun-21 09:31N 37°43' W 122°20'0 0.1
2015-Jun-21 08:28N 37°43' W 122°20'0 0.0
2015-Jun-21 07:31N 37°43' W 122°20'0 0.1
2015-Jun-21 06:31N 37°43' W 122°20'0 0.0
2015-Jun-21 05:31N 37°43' W 122°20'0 0.2
2015-Jun-21 04:31N 37°43' W 122°20'0 0.0
2015-Jun-21 03:31N 37°43' W 122°20'0 0.0
2015-Jun-21 02:31N 37°43' W 122°20'0 0.0
2015-Jun-21 01:31N 37°43' W 122°20'0 0.2
2015-Jun-21 00:31N 37°43' W 122°20'0 0.1
2015-Jun-20 23:31N 37°43' W 122°20'0 0.1
2015-Jun-20 22:31N 37°43' W 122°20'0 0.0
2015-Jun-20 21:31N 37°43' W 122°20'0 0.0
2015-Jun-20 20:31N 37°43' W 122°20'0 0.0
2015-Jun-20 19:31N 37°43' W 122°20'0 0.0
2015-Jun-20 18:28N 37°43' W 122°20'0 0.1
2015-Jun-20 17:31N 37°43' W 122°20'0 0.2
2015-Jun-20 16:31N 37°43' W 122°20'0 0.1
2015-Jun-20 15:31N 37°43' W 122°21'0 0.0
2015-Jun-20 14:31N 37°43' W 122°21'0 0.0
2015-Jun-20 13:31N 37°43' W 122°21'0 0.0
2015-Jun-20 12:31N 37°43' W 122°21'0 0.0
2015-Jun-20 11:31N 37°43' W 122°21'0 0.2
2015-Jun-20 10:31N 37°43' W 122°20'0 0.2
2015-Jun-20 09:31N 37°43' W 122°20'0 0.0
2015-Jun-20 08:31N 37°43' W 122°20'0 0.0
2015-Jun-20 07:25N 37°43' W 122°20'0 0.0
2015-Jun-20 06:31N 37°43' W 122°20'0 0.1
2015-Jun-20 05:31N 37°43' W 122°20'0 0.1
2015-Jun-20 04:31N 37°43' W 122°20'0 0.2
2015-Jun-20 03:25N 37°43' W 122°20'0 0.0
2015-Jun-20 02:31N 37°43' W 122°20'0 0.1
2015-Jun-20 01:31N 37°43' W 122°20'0 0.1
2015-Jun-20 00:25N 37°43' W 122°20'0 0.1
2015-Jun-19 23:31N 37°43' W 122°20'0 0.1
2015-Jun-19 22:31N 37°43' W 122°20'0 0.0
2015-Jun-19 21:31N 37°43' W 122°20'0 0.0
2015-Jun-19 20:31N 37°43' W 122°20'0 0.0
2015-Jun-19 19:31N 37°43' W 122°20'0 0.0
2015-Jun-19 18:31N 37°43' W 122°20'0 0.4
2015-Jun-19 17:31N 37°43' W 122°21'0 0.0
2015-Jun-19 16:31N 37°43' W 122°21'0 0.0
2015-Jun-19 15:31N 37°43' W 122°21'0 0.0
2015-Jun-19 14:31N 37°43' W 122°21'0 0.0
2015-Jun-19 13:31N 37°43' W 122°21'0 0.0
2015-Jun-19 12:31N 37°43' W 122°21'0 0.0
2015-Jun-19 11:31N 37°43' W 122°21'0 0.1
2015-Jun-19 10:31N 37°43' W 122°21'0 0.2
2015-Jun-19 09:31N 37°43' W 122°20'0 0.1
2015-Jun-19 08:31N 37°43' W 122°20'0 0.1
2015-Jun-19 07:31N 37°43' W 122°20'0 0.0
2015-Jun-19 06:25N 37°43' W 122°20'0 0.0
2015-Jun-19 05:31N 37°43' W 122°20'0 0.1
2015-Jun-19 04:31N 37°43' W 122°20'0 0.1
2015-Jun-19 03:31N 37°43' W 122°20'0 0.1
2015-Jun-19 02:28N 37°43' W 122°21'0 0.0
2015-Jun-19 01:31N 37°43' W 122°21'0 0.0
2015-Jun-19 00:31N 37°43' W 122°20'0 0.1
2015-Jun-18 23:31N 37°43' W 122°20'0 0.1
2015-Jun-18 22:31N 37°43' W 122°20'0 0.1
2015-Jun-18 21:28N 37°43' W 122°20'0 0.0
2015-Jun-18 20:31N 37°43' W 122°20'0 0.0
2015-Jun-18 19:31N 37°43' W 122°20'0 0.0
2015-Jun-18 18:28N 37°43' W 122°20'0 0.0
2015-Jun-18 17:31N 37°43' W 122°20'0 0.1
2015-Jun-18 16:31N 37°43' W 122°20'0 0.3
2015-Jun-18 15:31N 37°43' W 122°21'0 0.1
2015-Jun-18 14:31N 37°43' W 122°21'0 0.0
2015-Jun-18 13:25N 37°43' W 122°21'0 0.0
2015-Jun-18 12:31N 37°43' W 122°21'0 0.0
2015-Jun-18 11:31N 37°43' W 122°21'0 0.0
2015-Jun-18 10:31N 37°43' W 122°21'0 0.2
2015-Jun-18 09:31N 37°43' W 122°20'0 0.2
2015-Jun-18 08:31N 37°43' W 122°20'0 0.1
2015-Jun-18 07:31N 37°43' W 122°20'0 0.0
2015-Jun-18 06:31N 37°43' W 122°20'0 0.0
2015-Jun-18 05:25N 37°43' W 122°20'0 0.1
2015-Jun-18 04:31N 37°43' W 122°20'0 0.1
2015-Jun-18 03:31N 37°43' W 122°20'0 0.2
2015-Jun-18 02:31N 37°43' W 122°20'0 0.2
2015-Jun-18 01:31N 37°43' W 122°21'0 0.0
2015-Jun-18 00:31N 37°43' W 122°21'0 0.1
2015-Jun-17 23:31N 37°43' W 122°20'0 0.1
2015-Jun-17 22:31N 37°43' W 122°20'0 0.2
2015-Jun-17 21:31N 37°43' W 122°20'0 0.0
2015-Jun-17 20:31N 37°43' W 122°20'0 0.1
2015-Jun-17 19:31N 37°43' W 122°20'0 0.0
2015-Jun-17 18:31N 37°43' W 122°20'0 0.0
2015-Jun-17 17:31N 37°43' W 122°20'0 0.0
2015-Jun-17 16:31N 37°43' W 122°21'0 0.2
2015-Jun-17 15:25N 37°43' W 122°20'0 0.1
2015-Jun-17 14:31N 37°43' W 122°21'0 0.0
2015-Jun-17 13:31N 37°43' W 122°21'0 0.0
2015-Jun-17 12:31N 37°43' W 122°21'0 0.0
2015-Jun-17 11:31N 37°43' W 122°21'0 0.0
2015-Jun-17 10:31N 37°43' W 122°21'0 0.0
2015-Jun-17 09:31N 37°43' W 122°21'0 0.2
2015-Jun-17 08:31N 37°43' W 122°20'0 0.2
2015-Jun-17 07:28N 37°43' W 122°20'0 0.1
2015-Jun-17 06:25N 37°43' W 122°20'0 0.1
2015-Jun-17 05:31N 37°43' W 122°20'0 0.0
2015-Jun-17 04:31N 37°43' W 122°20'0 0.1
2015-Jun-17 03:28N 37°43' W 122°20'0 0.1
2015-Jun-17 02:28N 37°43' W 122°20'0 0.2
2015-Jun-17 01:25N 37°43' W 122°20'0 0.1
2015-Jun-17 00:19N 37°43' W 122°21'0 0.1
2015-Jun-16 23:33N 37°43' W 122°20'4 4.4
2015-Jun-16 22:33N 37°47' W 122°23'1111.1
2015-Jun-16 21:33N 37°46' W 122°37'9 9.0
2015-Jun-16 20:33N 37°38' W 122°40'1111.2
2015-Jun-16 19:32N 37°26' W 122°40'1110.7
2015-Jun-16 18:31N 37°15' W 122°39'1010.9
2015-Jun-16 17:33N 37°05' W 122°37'1111.2
2015-Jun-16 16:33N 36°55' W 122°31'1111.3
2015-Jun-16 15:33N 36°44' W 122°26'1211.6
2015-Jun-16 14:33N 36°33' W 122°20'1111.4
2015-Jun-16 13:33N 36°23' W 122°15'1111.1
2015-Jun-16 12:33N 36°13' W 122°09'1111.0
2015-Jun-16 11:33N 36°03' W 122°03'1110.8
2015-Jun-16 10:33N 35°54' W 121°56'1110.7
2015-Jun-16 09:33N 35°44' W 121°50'1110.8
2015-Jun-16 08:33N 35°35' W 121°44'1110.8
2015-Jun-16 07:33N 35°25' W 121°38'1110.8
2015-Jun-16 06:33N 35°16' W 121°31'1110.6
2015-Jun-16 05:33N 35°06' W 121°25'1110.9
2015-Jun-16 04:33N 34°57' W 121°19'1110.8
2015-Jun-16 03:33N 34°47' W 121°13'1110.5
2015-Jun-16 02:33N 34°38' W 121°07'1110.7
2015-Jun-16 01:33N 34°29' W 121°00'1111.4
2015-Jun-16 00:33N 34°25' W 120°47'1211.6
2015-Jun-15 23:33N 34°22' W 120°34'4011.4
2015-Jun-15 20:05N 34°12' W 119°47'711.7
2015-Jun-15 19:27N 34°10' W 119°39'2712.0
2015-Jun-15 17:14N 34°01' W 119°08'1112.3
2015-Jun-15 16:19N 33°55' W 118°56'912.3
2015-Jun-15 15:33N 33°51' W 118°47'1211.9
2015-Jun-15 14:33N 33°45' W 118°34'1111.4
2015-Jun-15 13:33N 33°39' W 118°22'9 9.0
2015-Jun-15 12:32N 33°41' W 118°12'5 4.9
2015-Jun-15 11:33N 33°45' W 118°14'0 0.3
2015-Jun-15 10:33N 33°45' W 118°14'0 0.0
2015-Jun-15 09:33N 33°45' W 118°14'0 0.0
2015-Jun-15 08:32N 33°45' W 118°14'0 0.0
2015-Jun-15 07:33N 33°45' W 118°14'0 0.0
2015-Jun-15 06:32N 33°45' W 118°14'0 0.0
2015-Jun-15 05:32N 33°45' W 118°14'0 0.0
2015-Jun-15 04:33N 33°45' W 118°14'0 0.0
2015-Jun-15 03:32N 33°45' W 118°14'0 0.0
2015-Jun-15 02:32N 33°45' W 118°14'0 0.0
2015-Jun-15 01:32N 33°45' W 118°14'0 0.0
2015-Jun-15 00:32N 33°45' W 118°14'0 0.0
2015-Jun-14 23:32N 33°45' W 118°14'0 0.0
2015-Jun-14 22:32N 33°45' W 118°14'0 0.0
2015-Jun-14 21:32N 33°45' W 118°14'  

Dump ship's entire track history